createdAt,value
2022-09-25T00:05:39.325Z,14.10
2022-09-25T00:20:49.487Z,12.17
2022-09-25T00:35:53.927Z,10.60
2022-09-25T00:50:59.229Z,8.93
2022-09-25T01:06:03.954Z,9.53
2022-09-25T01:21:26.522Z,11.47
2022-09-25T01:36:34.462Z,11.97
2022-09-25T01:51:43.200Z,10.03
2022-09-25T02:06:49.978Z,11.60
2022-09-25T02:22:31.603Z,9.33
2022-09-25T02:37:51.668Z,10.17
2022-09-25T02:53:12.757Z,9.10
2022-09-25T03:08:42.510Z,10.23
2022-09-25T03:23:49.374Z,9.50
2022-09-25T03:39:00.726Z,10.57
2022-09-25T03:54:19.685Z,11.00
2022-09-25T04:09:26.458Z,10.93
2022-09-25T04:24:59.050Z,13.90
2022-09-25T04:40:04.280Z,12.63
2022-09-25T04:55:21.061Z,12.57
2022-09-25T05:10:32.255Z,14.03
2022-09-25T05:25:36.265Z,12.70
2022-09-25T05:40:43.997Z,13.93
2022-09-25T05:55:51.828Z,13.20
2022-09-25T06:10:55.684Z,13.33
2022-09-25T06:26:04.082Z,10.07
2022-09-25T06:41:07.422Z,10.30
2022-09-25T06:56:10.901Z,8.87
2022-09-25T07:11:16.979Z,7.13
2022-09-25T07:26:23.148Z,8.27
2022-09-25T07:41:29.496Z,9.57
2022-09-25T07:56:36.217Z,9.90
2022-09-25T08:11:46.387Z,10.23
2022-09-25T08:26:51.377Z,10.10
2022-09-25T08:41:56.337Z,9.40
2022-09-25T08:57:02.384Z,7.93
2022-09-25T09:12:05.799Z,8.67
2022-09-25T09:27:28.868Z,8.13
2022-09-25T09:42:43.289Z,8.17
2022-09-25T09:57:49.764Z,7.10
2022-09-25T10:12:55.130Z,6.03
2022-09-25T10:28:04.050Z,6.70
2022-09-25T10:43:07.845Z,6.97
2022-09-25T10:58:30.505Z,6.03
2022-09-25T11:13:55.490Z,5.33
2022-09-25T11:29:14.297Z,5.63
2022-09-25T11:45:00.795Z,5.97
2022-09-25T12:00:05.448Z,6.13
2022-09-25T12:15:12.673Z,8.70
2022-09-25T12:30:21.760Z,5.83
2022-09-25T12:45:43.846Z,5.53
2022-09-25T13:00:49.304Z,4.93
2022-09-25T13:15:55.403Z,5.00
2022-09-25T13:31:16.153Z,4.23
2022-09-25T13:46:24.441Z,4.67
2022-09-25T14:01:48.779Z,4.80
2022-09-25T14:16:54.432Z,4.20
2022-09-25T14:32:36.528Z,4.30
2022-09-25T14:47:45.614Z,5.10
2022-09-25T15:02:51.106Z,4.77
2022-09-25T15:17:56.564Z,5.03
2022-09-25T15:33:01.688Z,4.70
2022-09-25T15:48:22.357Z,4.43
2022-09-25T16:03:45.818Z,4.47
2022-09-25T16:18:59.266Z,4.30
2022-09-25T16:34:04.733Z,4.60
2022-09-25T16:49:14.886Z,5.57
2022-09-25T17:04:23.394Z,5.00
2022-09-25T17:19:30.366Z,5.10
2022-09-25T17:34:36.844Z,5.27
2022-09-25T17:49:43.111Z,6.07
2022-09-25T18:04:47.621Z,7.37
2022-09-25T18:20:10.663Z,5.30
2022-09-25T18:35:16.064Z,6.23
2022-09-25T18:50:21.073Z,6.27
2022-09-25T19:05:26.717Z,8.80
2022-09-25T19:20:31.185Z,8.13
2022-09-25T19:35:35.008Z,6.83
2022-09-25T19:50:41.779Z,8.40
2022-09-25T20:05:50.636Z,8.30
2022-09-25T20:20:54.486Z,7.10
2022-09-25T20:36:03.676Z,6.10
2022-09-25T20:51:11.149Z,7.23
2022-09-25T21:06:19.251Z,7.17
2022-09-25T21:21:24.239Z,6.70
2022-09-25T21:36:28.840Z,9.30
2022-09-25T21:51:35.903Z,7.47
2022-09-25T22:06:41.251Z,8.90
2022-09-25T22:21:45.508Z,6.13
2022-09-25T22:36:50.222Z,6.20
2022-09-25T22:51:54.902Z,8.30
2022-09-25T23:07:00.419Z,8.50
2022-09-25T23:22:03.552Z,10.53
2022-09-25T23:37:07.415Z,11.03
2022-09-25T23:52:10.676Z,10.63
